sensor_id;sensor_type;location;lat;lon;timestamp;temperature;humidity
20827;DHT22;10574;52.508;13.236;2022-09-16T00:00:50;12.10;99.90
20827;DHT22;10574;52.508;13.236;2022-09-16T00:03:18;12.10;99.90
20827;DHT22;10574;52.508;13.236;2022-09-16T00:05:51;12.10;99.90
20827;DHT22;10574;52.508;13.236;2022-09-16T00:08:21;12.10;99.90
20827;DHT22;10574;52.508;13.236;2022-09-16T00:10:49;12.10;99.90
20827;DHT22;10574;52.508;13.236;2022-09-16T00:13:18;12.00;99.90
20827;DHT22;10574;52.508;13.236;2022-09-16T00:15:47;12.00;99.90
20827;DHT22;10574;52.508;13.236;2022-09-16T00:18:16;11.90;99.90
20827;DHT22;10574;52.508;13.236;2022-09-16T00:20:46;11.90;99.90
20827;DHT22;10574;52.508;13.236;2022-09-16T00:23:15;11.90;99.90
20827;DHT22;10574;52.508;13.236;2022-09-16T00:25:43;11.90;99.90
20827;DHT22;10574;52.508;13.236;2022-09-16T00:28:10;11.90;99.90
20827;DHT22;10574;52.508;13.236;2022-09-16T00:30:38;11.80;99.90
20827;DHT22;10574;52.508;13.236;2022-09-16T00:33:05;11.80;99.90
20827;DHT22;10574;52.508;13.236;2022-09-16T00:35:33;11.80;99.90
20827;DHT22;10574;52.508;13.236;2022-09-16T00:38:00;11.80;99.90
20827;DHT22;10574;52.508;13.236;2022-09-16T00:40:28;11.80;99.90
20827;DHT22;10574;52.508;13.236;2022-09-16T00:42:55;11.80;99.90
20827;DHT22;10574;52.508;13.236;2022-09-16T00:45:26;11.80;99.90
20827;DHT22;10574;52.508;13.236;2022-09-16T00:48:00;11.70;99.90
20827;DHT22;10574;52.508;13.236;2022-09-16T00:53:01;11.70;99.90
20827;DHT22;10574;52.508;13.236;2022-09-16T00:55:31;11.70;99.90
20827;DHT22;10574;52.508;13.236;2022-09-16T00:58:06;11.70;99.90
20827;DHT22;10574;52.508;13.236;2022-09-16T01:00:30;11.70;99.90
20827;DHT22;10574;52.508;13.236;2022-09-16T01:02:58;11.60;99.90
20827;DHT22;10574;52.508;13.236;2022-09-16T01:05:26;11.60;99.90
20827;DHT22;10574;52.508;13.236;2022-09-16T01:07:54;11.60;99.90
20827;DHT22;10574;52.508;13.236;2022-09-16T01:10:24;11.60;99.90
20827;DHT22;10574;52.508;13.236;2022-09-16T01:12:54;11.60;99.90
20827;DHT22;10574;52.508;13.236;2022-09-16T01:15:25;11.60;99.90
20827;DHT22;10574;52.508;13.236;2022-09-16T01:20:38;11.50;99.90
20827;DHT22;10574;52.508;13.236;2022-09-16T01:23:27;11.50;99.90
20827;DHT22;10574;52.508;13.236;2022-09-16T01:32:00;11.40;99.90
20827;DHT22;10574;52.508;13.236;2022-09-16T01:37:11;11.40;99.90
20827;DHT22;10574;52.508;13.236;2022-09-16T01:39:57;11.40;99.90
20827;DHT22;10574;52.508;13.236;2022-09-16T01:45:14;11.40;99.90
20827;DHT22;10574;52.508;13.236;2022-09-16T01:47:58;11.30;99.90
20827;DHT22;10574;52.508;13.236;2022-09-16T01:50:35;11.30;99.90
20827;DHT22;10574;52.508;13.236;2022-09-16T01:53:19;11.40;99.90
20827;DHT22;10574;52.508;13.236;2022-09-16T01:55:53;11.30;99.90
20827;DHT22;10574;52.508;13.236;2022-09-16T01:58:22;11.30;99.90
20827;DHT22;10574;52.508;13.236;2022-09-16T02:00:54;11.30;99.90
20827;DHT22;10574;52.508;13.236;2022-09-16T02:03:24;11.30;99.90
20827;DHT22;10574;52.508;13.236;2022-09-16T02:05:59;11.30;99.90
20827;DHT22;10574;52.508;13.236;2022-09-16T02:08:32;11.30;99.90
20827;DHT22;10574;52.508;13.236;2022-09-16T02:10:58;11.30;99.90
20827;DHT22;10574;52.508;13.236;2022-09-16T02:13:35;11.30;99.90
20827;DHT22;10574;52.508;13.236;2022-09-16T02:16:07;11.30;99.90
20827;DHT22;10574;52.508;13.236;2022-09-16T02:18:33;11.30;99.90
20827;DHT22;10574;52.508;13.236;2022-09-16T02:21:03;11.20;99.90
20827;DHT22;10574;52.508;13.236;2022-09-16T02:23:36;11.20;99.90
20827;DHT22;10574;52.508;13.236;2022-09-16T02:26:04;11.20;99.90
20827;DHT22;10574;52.508;13.236;2022-09-16T02:28:35;11.20;99.90
20827;DHT22;10574;52.508;13.236;2022-09-16T02:31:07;11.10;99.90
20827;DHT22;10574;52.508;13.236;2022-09-16T02:33:50;11.20;99.90
20827;DHT22;10574;52.508;13.236;2022-09-16T02:36:15;11.10;99.90
20827;DHT22;10574;52.508;13.236;2022-09-16T02:38:47;11.10;99.90
20827;DHT22;10574;52.508;13.236;2022-09-16T02:41:14;11.10;99.90
20827;DHT22;10574;52.508;13.236;2022-09-16T02:43:43;11.10;99.90
20827;DHT22;10574;52.508;13.236;2022-09-16T02:46:53;11.10;99.90
20827;DHT22;10574;52.508;13.236;2022-09-16T02:49:25;11.10;99.90
20827;DHT22;10574;52.508;13.236;2022-09-16T02:52:12;11.00;99.90
20827;DHT22;10574;52.508;13.236;2022-09-16T02:54:55;11.10;99.90
20827;DHT22;10574;52.508;13.236;2022-09-16T02:57:23;11.00;99.90
20827;DHT22;10574;52.508;13.236;2022-09-16T02:59:51;11.00;99.90
20827;DHT22;10574;52.508;13.236;2022-09-16T03:02:20;11.10;99.90
20827;DHT22;10574;52.508;13.236;2022-09-16T03:04:48;11.10;99.90
20827;DHT22;10574;52.508;13.236;2022-09-16T03:07:16;11.00;99.90
20827;DHT22;10574;52.508;13.236;2022-09-16T03:09:45;11.00;99.90
20827;DHT22;10574;52.508;13.236;2022-09-16T03:12:18;11.00;99.90
20827;DHT22;10574;52.508;13.236;2022-09-16T03:23:22;10.90;99.90
20827;DHT22;10574;52.508;13.236;2022-09-16T03:28:24;10.90;99.90
20827;DHT22;10574;52.508;13.236;2022-09-16T03:31:07;10.90;99.90
20827;DHT22;10574;52.508;13.236;2022-09-16T03:33:41;10.90;99.90
20827;DHT22;10574;52.508;13.236;2022-09-16T03:36:07;10.80;99.90
20827;DHT22;10574;52.508;13.236;2022-09-16T03:38:37;10.90;99.90
20827;DHT22;10574;52.508;13.236;2022-09-16T03:41:06;10.80;99.90
20827;DHT22;10574;52.508;13.236;2022-09-16T03:43:34;10.80;99.90
20827;DHT22;10574;52.508;13.236;2022-09-16T03:46:02;10.80;99.90
20827;DHT22;10574;52.508;13.236;2022-09-16T03:48:29;10.80;99.90
20827;DHT22;10574;52.508;13.236;2022-09-16T03:50:57;10.80;99.90
20827;DHT22;10574;52.508;13.236;2022-09-16T03:53:24;10.80;99.90
20827;DHT22;10574;52.508;13.236;2022-09-16T03:55:52;10.80;99.90
20827;DHT22;10574;52.508;13.236;2022-09-16T03:58:19;10.80;99.90
20827;DHT22;10574;52.508;13.236;2022-09-16T04:00:50;10.80;99.90
20827;DHT22;10574;52.508;13.236;2022-09-16T04:03:18;10.80;99.90
20827;DHT22;10574;52.508;13.236;2022-09-16T04:05:45;10.80;99.90
20827;DHT22;10574;52.508;13.236;2022-09-16T04:08:13;10.80;99.90
20827;DHT22;10574;52.508;13.236;2022-09-16T04:10:40;10.80;99.90
20827;DHT22;10574;52.508;13.236;2022-09-16T04:13:08;10.80;99.90
20827;DHT22;10574;52.508;13.236;2022-09-16T04:15:36;10.80;99.90
20827;DHT22;10574;52.508;13.236;2022-09-16T04:18:04;10.70;99.90
20827;DHT22;10574;52.508;13.236;2022-09-16T04:20:32;10.70;99.90
20827;DHT22;10574;52.508;13.236;2022-09-16T04:23:00;10.70;99.90
20827;DHT22;10574;52.508;13.236;2022-09-16T04:25:27;10.70;99.90
20827;DHT22;10574;52.508;13.236;2022-09-16T04:27:55;10.70;99.90
20827;DHT22;10574;52.508;13.236;2022-09-16T04:30:23;10.70;99.90
20827;DHT22;10574;52.508;13.236;2022-09-16T04:32:54;10.60;99.90
20827;DHT22;10574;52.508;13.236;2022-09-16T04:35:23;10.60;99.90
20827;DHT22;10574;52.508;13.236;2022-09-16T04:37:51;10.60;99.90
20827;DHT22;10574;52.508;13.236;2022-09-16T04:40:19;10.60;99.90
20827;DHT22;10574;52.508;13.236;2022-09-16T04:42:50;10.70;99.90
20827;DHT22;10574;52.508;13.236;2022-09-16T04:45:18;10.60;99.90
20827;DHT22;10574;52.508;13.236;2022-09-16T04:47:45;10.60;99.90
20827;DHT22;10574;52.508;13.236;2022-09-16T04:50:13;10.60;99.90
20827;DHT22;10574;52.508;13.236;2022-09-16T04:52:41;10.60;99.90
20827;DHT22;10574;52.508;13.236;2022-09-16T04:55:09;10.60;99.90
20827;DHT22;10574;52.508;13.236;2022-09-16T04:57:36;10.60;99.90
20827;DHT22;10574;52.508;13.236;2022-09-16T05:00:04;10.60;99.90
20827;DHT22;10574;52.508;13.236;2022-09-16T05:02:32;10.60;99.90
20827;DHT22;10574;52.508;13.236;2022-09-16T05:05:00;10.60;99.90
20827;DHT22;10574;52.508;13.236;2022-09-16T05:07:28;10.70;99.90
20827;DHT22;10574;52.508;13.236;2022-09-16T05:09:55;10.70;99.90
20827;DHT22;10574;52.508;13.236;2022-09-16T05:12:23;10.70;99.90
20827;DHT22;10574;52.508;13.236;2022-09-16T05:14:50;10.70;99.90
20827;DHT22;10574;52.508;13.236;2022-09-16T05:17:18;10.70;99.90
20827;DHT22;10574;52.508;13.236;2022-09-16T05:19:46;10.70;99.90
20827;DHT22;10574;52.508;13.236;2022-09-16T05:22:13;10.70;99.90
20827;DHT22;10574;52.508;13.236;2022-09-16T05:24:41;10.70;99.90
20827;DHT22;10574;52.508;13.236;2022-09-16T05:27:10;10.70;99.90
20827;DHT22;10574;52.508;13.236;2022-09-16T05:29:37;10.80;99.90
20827;DHT22;10574;52.508;13.236;2022-09-16T05:32:05;10.90;99.90
20827;DHT22;10574;52.508;13.236;2022-09-16T05:34:33;10.90;99.90
20827;DHT22;10574;52.508;13.236;2022-09-16T05:37:02;10.90;99.90
20827;DHT22;10574;52.508;13.236;2022-09-16T05:39:30;11.00;99.90
20827;DHT22;10574;52.508;13.236;2022-09-16T05:41:59;11.00;99.90
20827;DHT22;10574;52.508;13.236;2022-09-16T05:44:27;11.00;99.90
20827;DHT22;10574;52.508;13.236;2022-09-16T05:47:12;11.00;99.90
20827;DHT22;10574;52.508;13.236;2022-09-16T05:49:41;11.10;99.90
20827;DHT22;10574;52.508;13.236;2022-09-16T05:52:08;11.10;99.90
20827;DHT22;10574;52.508;13.236;2022-09-16T05:54:36;11.10;99.90
20827;DHT22;10574;52.508;13.236;2022-09-16T05:57:04;11.20;99.90
20827;DHT22;10574;52.508;13.236;2022-09-16T05:59:31;11.20;99.90
20827;DHT22;10574;52.508;13.236;2022-09-16T06:01:59;11.30;99.90
20827;DHT22;10574;52.508;13.236;2022-09-16T06:04:27;11.30;99.90
20827;DHT22;10574;52.508;13.236;2022-09-16T06:06:54;11.40;99.90
20827;DHT22;10574;52.508;13.236;2022-09-16T06:09:23;11.40;99.90
20827;DHT22;10574;52.508;13.236;2022-09-16T06:11:52;11.40;99.90
20827;DHT22;10574;52.508;13.236;2022-09-16T06:14:20;11.50;99.90
20827;DHT22;10574;52.508;13.236;2022-09-16T06:16:48;11.50;99.90
20827;DHT22;10574;52.508;13.236;2022-09-16T06:19:17;11.50;99.90
20827;DHT22;10574;52.508;13.236;2022-09-16T06:21:46;11.50;99.90
20827;DHT22;10574;52.508;13.236;2022-09-16T06:24:15;11.60;99.90
20827;DHT22;10574;52.508;13.236;2022-09-16T06:26:44;11.70;99.90
20827;DHT22;10574;52.508;13.236;2022-09-16T06:29:13;11.70;99.90
20827;DHT22;10574;52.508;13.236;2022-09-16T06:31:41;11.70;99.90
20827;DHT22;10574;52.508;13.236;2022-09-16T06:34:14;11.80;99.90
20827;DHT22;10574;52.508;13.236;2022-09-16T06:36:42;11.80;99.90
20827;DHT22;10574;52.508;13.236;2022-09-16T06:39:11;11.80;99.90
20827;DHT22;10574;52.508;13.236;2022-09-16T06:41:39;11.90;99.90
20827;DHT22;10574;52.508;13.236;2022-09-16T06:44:07;12.00;99.90
20827;DHT22;10574;52.508;13.236;2022-09-16T06:46:35;12.00;99.90
20827;DHT22;10574;52.508;13.236;2022-09-16T06:49:02;12.00;99.90
20827;DHT22;10574;52.508;13.236;2022-09-16T06:51:30;12.10;99.90
20827;DHT22;10574;52.508;13.236;2022-09-16T06:54:00;12.20;99.90
20827;DHT22;10574;52.508;13.236;2022-09-16T06:56:28;12.20;99.90
20827;DHT22;10574;52.508;13.236;2022-09-16T06:58:55;12.20;99.90
20827;DHT22;10574;52.508;13.236;2022-09-16T07:01:26;12.30;99.90
20827;DHT22;10574;52.508;13.236;2022-09-16T07:03:54;12.30;99.90
20827;DHT22;10574;52.508;13.236;2022-09-16T07:06:24;12.30;99.90
20827;DHT22;10574;52.508;13.236;2022-09-16T07:08:53;12.40;99.90
20827;DHT22;10574;52.508;13.236;2022-09-16T07:11:22;12.50;99.90
20827;DHT22;10574;52.508;13.236;2022-09-16T07:13:50;12.50;99.90
20827;DHT22;10574;52.508;13.236;2022-09-16T07:16:20;12.60;99.90
20827;DHT22;10574;52.508;13.236;2022-09-16T07:18:53;12.70;99.90
20827;DHT22;10574;52.508;13.236;2022-09-16T07:21:22;12.70;99.90
20827;DHT22;10574;52.508;13.236;2022-09-16T07:23:53;12.90;99.90
20827;DHT22;10574;52.508;13.236;2022-09-16T07:26:23;13.00;99.90
20827;DHT22;10574;52.508;13.236;2022-09-16T07:28:55;13.20;99.90
20827;DHT22;10574;52.508;13.236;2022-09-16T07:31:26;13.30;99.90
20827;DHT22;10574;52.508;13.236;2022-09-16T07:33:56;13.50;99.90
20827;DHT22;10574;52.508;13.236;2022-09-16T07:36:26;13.50;99.90
20827;DHT22;10574;52.508;13.236;2022-09-16T07:38:54;13.90;99.90
20827;DHT22;10574;52.508;13.236;2022-09-16T07:41:26;14.20;99.90
20827;DHT22;10574;52.508;13.236;2022-09-16T07:43:56;14.60;99.90
20827;DHT22;10574;52.508;13.236;2022-09-16T07:46:26;15.10;99.90
20827;DHT22;10574;52.508;13.236;2022-09-16T07:48:55;15.40;99.90
20827;DHT22;10574;52.508;13.236;2022-09-16T07:51:24;15.60;99.90
20827;DHT22;10574;52.508;13.236;2022-09-16T07:53:57;15.80;99.90
20827;DHT22;10574;52.508;13.236;2022-09-16T07:56:27;15.70;99.90
20827;DHT22;10574;52.508;13.236;2022-09-16T07:58:56;15.40;99.90
20827;DHT22;10574;52.508;13.236;2022-09-16T08:01:24;15.00;99.90
20827;DHT22;10574;52.508;13.236;2022-09-16T08:03:52;14.90;99.90
20827;DHT22;10574;52.508;13.236;2022-09-16T08:06:23;14.90;99.90
20827;DHT22;10574;52.508;13.236;2022-09-16T08:08:54;14.80;99.90
20827;DHT22;10574;52.508;13.236;2022-09-16T08:11:22;14.70;99.90
20827;DHT22;10574;52.508;13.236;2022-09-16T08:13:50;14.60;99.90
20827;DHT22;10574;52.508;13.236;2022-09-16T08:16:19;14.60;99.90
20827;DHT22;10574;52.508;13.236;2022-09-16T08:18:49;14.60;99.90
20827;DHT22;10574;52.508;13.236;2022-09-16T08:21:20;14.60;99.90
20827;DHT22;10574;52.508;13.236;2022-09-16T08:23:49;14.60;99.90
20827;DHT22;10574;52.508;13.236;2022-09-16T08:26:17;14.60;99.90
20827;DHT22;10574;52.508;13.236;2022-09-16T08:28:46;14.60;99.90
20827;DHT22;10574;52.508;13.236;2022-09-16T08:31:15;14.60;99.90
20827;DHT22;10574;52.508;13.236;2022-09-16T08:33:43;14.50;99.90
20827;DHT22;10574;52.508;13.236;2022-09-16T08:36:19;14.70;99.90
20827;DHT22;10574;52.508;13.236;2022-09-16T08:38:54;14.80;99.90
20827;DHT22;10574;52.508;13.236;2022-09-16T08:41:32;15.10;99.90
20827;DHT22;10574;52.508;13.236;2022-09-16T08:46:34;15.90;99.90
20827;DHT22;10574;52.508;13.236;2022-09-16T08:49:21;16.10;99.90
20827;DHT22;10574;52.508;13.236;2022-09-16T08:51:49;16.10;99.90
20827;DHT22;10574;52.508;13.236;2022-09-16T08:54:24;15.80;99.90
20827;DHT22;10574;52.508;13.236;2022-09-16T08:56:53;15.40;99.90
20827;DHT22;10574;52.508;13.236;2022-09-16T08:59:23;15.20;99.90
20827;DHT22;10574;52.508;13.236;2022-09-16T09:01:58;15.10;99.90
20827;DHT22;10574;52.508;13.236;2022-09-16T09:04:25;15.10;99.90
20827;DHT22;10574;52.508;13.236;2022-09-16T09:07:22;15.10;99.90
20827;DHT22;10574;52.508;13.236;2022-09-16T09:10:06;15.00;99.90
20827;DHT22;10574;52.508;13.236;2022-09-16T09:12:48;15.00;99.90
20827;DHT22;10574;52.508;13.236;2022-09-16T09:18:21;15.10;99.90
20827;DHT22;10574;52.508;13.236;2022-09-16T09:26:21;15.80;99.90
20827;DHT22;10574;52.508;13.236;2022-09-16T09:28:58;16.00;99.90
20827;DHT22;10574;52.508;13.236;2022-09-16T09:31:56;16.10;99.90
20827;DHT22;10574;52.508;13.236;2022-09-16T09:39:59;16.00;99.90
20827;DHT22;10574;52.508;13.236;2022-09-16T09:42:35;16.10;99.90
20827;DHT22;10574;52.508;13.236;2022-09-16T09:45:26;16.10;99.90
20827;DHT22;10574;52.508;13.236;2022-09-16T09:48:00;16.10;99.90
20827;DHT22;10574;52.508;13.236;2022-09-16T09:50:50;16.00;99.90
20827;DHT22;10574;52.508;13.236;2022-09-16T09:53:27;16.00;99.90
20827;DHT22;10574;52.508;13.236;2022-09-16T09:55:33;16.20;99.90
20827;DHT22;10574;52.508;13.236;2022-09-16T10:00:38;16.70;99.90
20827;DHT22;10574;52.508;13.236;2022-09-16T10:03:12;16.70;99.90
20827;DHT22;10574;52.508;13.236;2022-09-16T10:05:40;16.40;99.90
20827;DHT22;10574;52.508;13.236;2022-09-16T10:08:23;16.30;99.90
20827;DHT22;10574;52.508;13.236;2022-09-16T10:10:53;16.40;99.90
20827;DHT22;10574;52.508;13.236;2022-09-16T10:13:24;16.20;99.90
20827;DHT22;10574;52.508;13.236;2022-09-16T10:16:07;16.20;99.90
20827;DHT22;10574;52.508;13.236;2022-09-16T10:18:36;16.40;99.90
20827;DHT22;10574;52.508;13.236;2022-09-16T10:21:06;16.80;99.90
20827;DHT22;10574;52.508;13.236;2022-09-16T10:23:35;16.90;99.90
20827;DHT22;10574;52.508;13.236;2022-09-16T10:28:35;16.70;99.90
20827;DHT22;10574;52.508;13.236;2022-09-16T10:31:05;16.90;99.90
20827;DHT22;10574;52.508;13.236;2022-09-16T10:33:33;17.20;99.90
20827;DHT22;10574;52.508;13.236;2022-09-16T10:36:07;17.40;99.90
20827;DHT22;10574;52.508;13.236;2022-09-16T10:38:40;17.50;99.90
20827;DHT22;10574;52.508;13.236;2022-09-16T10:41:16;17.40;99.90
20827;DHT22;10574;52.508;13.236;2022-09-16T10:43:53;17.40;99.90
20827;DHT22;10574;52.508;13.236;2022-09-16T10:46:20;17.40;99.90
20827;DHT22;10574;52.508;13.236;2022-09-16T10:48:49;17.40;99.90
20827;DHT22;10574;52.508;13.236;2022-09-16T10:51:26;17.50;99.90
20827;DHT22;10574;52.508;13.236;2022-09-16T10:53:58;17.70;99.90
20827;DHT22;10574;52.508;13.236;2022-09-16T10:56:28;18.00;99.90
20827;DHT22;10574;52.508;13.236;2022-09-16T10:59:12;18.10;99.90
20827;DHT22;10574;52.508;13.236;2022-09-16T11:07:16;17.30;99.90
20827;DHT22;10574;52.508;13.236;2022-09-16T11:12:45;17.20;99.90
20827;DHT22;10574;52.508;13.236;2022-09-16T11:18:10;17.10;99.90
20827;DHT22;10574;52.508;13.236;2022-09-16T11:23:34;17.30;99.90
20827;DHT22;10574;52.508;13.236;2022-09-16T11:37:26;17.30;99.90
20827;DHT22;10574;52.508;13.236;2022-09-16T11:48:20;17.10;99.90
20827;DHT22;10574;52.508;13.236;2022-09-16T11:53:38;16.90;99.90
20827;DHT22;10574;52.508;13.236;2022-09-16T11:58:44;17.10;99.90
20827;DHT22;10574;52.508;13.236;2022-09-16T12:01:31;17.30;99.90
20827;DHT22;10574;52.508;13.236;2022-09-16T12:04:15;17.60;99.90
20827;DHT22;10574;52.508;13.236;2022-09-16T12:07:03;17.90;99.90
20827;DHT22;10574;52.508;13.236;2022-09-16T12:09:45;18.00;99.90
20827;DHT22;10574;52.508;13.236;2022-09-16T12:12:25;18.30;99.90
20827;DHT22;10574;52.508;13.236;2022-09-16T12:14:58;18.50;99.90
20827;DHT22;10574;52.508;13.236;2022-09-16T12:17:35;18.50;99.90
20827;DHT22;10574;52.508;13.236;2022-09-16T12:20:18;18.50;99.90
20827;DHT22;10574;52.508;13.236;2022-09-16T12:22:48;18.60;99.90
20827;DHT22;10574;52.508;13.236;2022-09-16T12:25:28;18.50;99.90
20827;DHT22;10574;52.508;13.236;2022-09-16T12:28:06;18.30;99.90
20827;DHT22;10574;52.508;13.236;2022-09-16T12:30:37;18.30;99.90
20827;DHT22;10574;52.508;13.236;2022-09-16T12:38:19;18.20;99.90
20827;DHT22;10574;52.508;13.236;2022-09-16T12:52:24;18.50;99.90
20827;DHT22;10574;52.508;13.236;2022-09-16T13:03:18;18.60;99.90
20827;DHT22;10574;52.508;13.236;2022-09-16T13:05:44;18.80;99.90
20827;DHT22;10574;52.508;13.236;2022-09-16T13:08:30;18.90;99.80
20827;DHT22;10574;52.508;13.236;2022-09-16T13:11:04;18.80;99.90
20827;DHT22;10574;52.508;13.236;2022-09-16T13:13:34;18.80;99.40
20827;DHT22;10574;52.508;13.236;2022-09-16T13:16:04;18.70;99.00
20827;DHT22;10574;52.508;13.236;2022-09-16T13:18:47;18.50;98.80
20827;DHT22;10574;52.508;13.236;2022-09-16T13:21:26;18.70;99.00
20827;DHT22;10574;52.508;13.236;2022-09-16T13:24:15;18.70;99.20
20827;DHT22;10574;52.508;13.236;2022-09-16T13:26:44;18.80;98.40
20827;DHT22;10574;52.508;13.236;2022-09-16T13:29:30;18.70;97.60
20827;DHT22;10574;52.508;13.236;2022-09-16T13:32:04;18.70;98.20
20827;DHT22;10574;52.508;13.236;2022-09-16T13:34:32;18.50;98.40
20827;DHT22;10574;52.508;13.236;2022-09-16T13:37:00;18.40;98.60
20827;DHT22;10574;52.508;13.236;2022-09-16T13:39:30;18.40;98.90
20827;DHT22;10574;52.508;13.236;2022-09-16T13:42:20;18.50;99.70
20827;DHT22;10574;52.508;13.236;2022-09-16T13:44:46;18.70;99.60
20827;DHT22;10574;52.508;13.236;2022-09-16T13:47:16;18.80;98.00
20827;DHT22;10574;52.508;13.236;2022-09-16T13:49:50;18.70;97.40
20827;DHT22;10574;52.508;13.236;2022-09-16T13:52:32;18.60;98.00
20827;DHT22;10574;52.508;13.236;2022-09-16T13:55:03;18.40;99.10
20827;DHT22;10574;52.508;13.236;2022-09-16T14:00:39;18.70;98.50
20827;DHT22;10574;52.508;13.236;2022-09-16T14:14:33;19.10;91.80
20827;DHT22;10574;52.508;13.236;2022-09-16T14:17:04;19.00;90.60
20827;DHT22;10574;52.508;13.236;2022-09-16T14:19:37;19.00;91.10
20827;DHT22;10574;52.508;13.236;2022-09-16T14:22:13;19.20;91.40
20827;DHT22;10574;52.508;13.236;2022-09-16T14:24:44;18.90;90.60
20827;DHT22;10574;52.508;13.236;2022-09-16T14:30:00;18.90;91.20
20827;DHT22;10574;52.508;13.236;2022-09-16T14:32:34;19.10;90.10
20827;DHT22;10574;52.508;13.236;2022-09-16T14:35:07;19.10;89.30
20827;DHT22;10574;52.508;13.236;2022-09-16T14:37:33;19.10;89.50
20827;DHT22;10574;52.508;13.236;2022-09-16T14:40:09;19.10;90.50
20827;DHT22;10574;52.508;13.236;2022-09-16T14:42:35;19.30;90.30
20827;DHT22;10574;52.508;13.236;2022-09-16T14:45:04;19.20;91.70
20827;DHT22;10574;52.508;13.236;2022-09-16T14:47:36;19.00;91.20
20827;DHT22;10574;52.508;13.236;2022-09-16T14:50:07;18.70;91.60
20827;DHT22;10574;52.508;13.236;2022-09-16T14:52:36;18.80;91.70
20827;DHT22;10574;52.508;13.236;2022-09-16T14:55:19;18.90;91.20
20827;DHT22;10574;52.508;13.236;2022-09-16T14:57:43;18.80;92.00
20827;DHT22;10574;52.508;13.236;2022-09-16T15:00:15;18.70;91.80
20827;DHT22;10574;52.508;13.236;2022-09-16T15:03:05;18.40;92.40
20827;DHT22;10574;52.508;13.236;2022-09-16T15:05:34;18.20;91.30
20827;DHT22;10574;52.508;13.236;2022-09-16T15:10:36;17.70;92.40
20827;DHT22;10574;52.508;13.236;2022-09-16T15:13:09;17.60;92.10
20827;DHT22;10574;52.508;13.236;2022-09-16T15:15:38;17.50;92.50
20827;DHT22;10574;52.508;13.236;2022-09-16T15:18:09;17.50;92.90
20827;DHT22;10574;52.508;13.236;2022-09-16T15:20:39;17.40;93.50
20827;DHT22;10574;52.508;13.236;2022-09-16T15:23:18;17.40;93.60
20827;DHT22;10574;52.508;13.236;2022-09-16T15:25:57;17.40;94.00
20827;DHT22;10574;52.508;13.236;2022-09-16T15:28:25;17.30;94.50
20827;DHT22;10574;52.508;13.236;2022-09-16T15:30:54;17.30;94.50
20827;DHT22;10574;52.508;13.236;2022-09-16T15:33:38;17.20;94.20
20827;DHT22;10574;52.508;13.236;2022-09-16T15:36:05;17.20;94.80
20827;DHT22;10574;52.508;13.236;2022-09-16T15:38:33;17.30;95.00
20827;DHT22;10574;52.508;13.236;2022-09-16T15:41:09;17.40;94.60
20827;DHT22;10574;52.508;13.236;2022-09-16T15:43:41;17.50;94.50
20827;DHT22;10574;52.508;13.236;2022-09-16T15:46:16;17.50;93.90
20827;DHT22;10574;52.508;13.236;2022-09-16T15:48:57;17.50;95.20
20827;DHT22;10574;52.508;13.236;2022-09-16T15:54:49;17.50;96.60
20827;DHT22;10574;52.508;13.236;2022-09-16T15:57:31;17.50;96.10
20827;DHT22;10574;52.508;13.236;2022-09-16T16:00:04;17.40;96.00
20827;DHT22;10574;52.508;13.236;2022-09-16T16:02:56;17.40;96.70
20827;DHT22;10574;52.508;13.236;2022-09-16T16:05:29;17.20;96.30
20827;DHT22;10574;52.508;13.236;2022-09-16T16:08:00;17.10;98.10
20827;DHT22;10574;52.508;13.236;2022-09-16T16:10:30;17.10;97.90
20827;DHT22;10574;52.508;13.236;2022-09-16T16:12:59;17.10;97.80
20827;DHT22;10574;52.508;13.236;2022-09-16T16:15:34;17.00;99.00
20827;DHT22;10574;52.508;13.236;2022-09-16T16:18:04;17.00;98.40
20827;DHT22;10574;52.508;13.236;2022-09-16T16:20:35;16.90;99.40
20827;DHT22;10574;52.508;13.236;2022-09-16T16:23:03;16.80;99.20
20827;DHT22;10574;52.508;13.236;2022-09-16T16:25:31;16.80;99.20
20827;DHT22;10574;52.508;13.236;2022-09-16T16:27:59;16.60;99.70
20827;DHT22;10574;52.508;13.236;2022-09-16T16:30:27;16.50;99.90
20827;DHT22;10574;52.508;13.236;2022-09-16T16:32:55;16.50;99.90
20827;DHT22;10574;52.508;13.236;2022-09-16T16:35:23;16.50;99.90
20827;DHT22;10574;52.508;13.236;2022-09-16T16:37:51;16.50;99.90
20827;DHT22;10574;52.508;13.236;2022-09-16T16:40:18;16.50;99.90
20827;DHT22;10574;52.508;13.236;2022-09-16T16:42:46;16.60;99.90
20827;DHT22;10574;52.508;13.236;2022-09-16T16:45:14;16.60;99.90
20827;DHT22;10574;52.508;13.236;2022-09-16T16:47:42;16.50;99.90
20827;DHT22;10574;52.508;13.236;2022-09-16T16:50:10;16.40;99.90
20827;DHT22;10574;52.508;13.236;2022-09-16T16:52:38;16.20;99.90
20827;DHT22;10574;52.508;13.236;2022-09-16T16:55:06;16.10;99.90
20827;DHT22;10574;52.508;13.236;2022-09-16T16:57:33;16.00;99.90
20827;DHT22;10574;52.508;13.236;2022-09-16T17:00:02;15.90;99.90
20827;DHT22;10574;52.508;13.236;2022-09-16T17:02:30;15.80;99.90
20827;DHT22;10574;52.508;13.236;2022-09-16T17:04:58;15.70;99.90
20827;DHT22;10574;52.508;13.236;2022-09-16T17:07:25;15.60;99.90
20827;DHT22;10574;52.508;13.236;2022-09-16T17:09:55;15.50;99.90
20827;DHT22;10574;52.508;13.236;2022-09-16T17:12:25;15.40;99.90
20827;DHT22;10574;52.508;13.236;2022-09-16T17:14:53;15.40;99.90
20827;DHT22;10574;52.508;13.236;2022-09-16T17:17:21;15.40;99.90
20827;DHT22;10574;52.508;13.236;2022-09-16T17:19:48;15.30;99.90
20827;DHT22;10574;52.508;13.236;2022-09-16T17:22:16;15.20;99.90
20827;DHT22;10574;52.508;13.236;2022-09-16T17:24:44;15.20;99.90
20827;DHT22;10574;52.508;13.236;2022-09-16T17:27:11;15.10;99.90
20827;DHT22;10574;52.508;13.236;2022-09-16T17:29:43;15.00;99.90
20827;DHT22;10574;52.508;13.236;2022-09-16T17:32:11;15.00;99.90
20827;DHT22;10574;52.508;13.236;2022-09-16T17:34:39;15.00;99.90
20827;DHT22;10574;52.508;13.236;2022-09-16T17:37:07;14.90;99.90
20827;DHT22;10574;52.508;13.236;2022-09-16T17:39:34;14.80;99.90
20827;DHT22;10574;52.508;13.236;2022-09-16T17:42:03;14.70;99.90
20827;DHT22;10574;52.508;13.236;2022-09-16T17:44:31;14.70;99.90
20827;DHT22;10574;52.508;13.236;2022-09-16T17:46:58;14.60;99.90
20827;DHT22;10574;52.508;13.236;2022-09-16T17:49:26;14.50;99.90
20827;DHT22;10574;52.508;13.236;2022-09-16T17:51:54;14.40;99.90
20827;DHT22;10574;52.508;13.236;2022-09-16T17:54:22;14.40;99.90
20827;DHT22;10574;52.508;13.236;2022-09-16T17:56:49;14.40;99.90